createdAt,value
2023-01-09T00:00:51.881Z,7.69
2023-01-09T00:03:53.771Z,7.61
2023-01-09T00:06:59.699Z,7.63
2023-01-09T00:10:01.422Z,7.64
2023-01-09T00:13:03.179Z,7.71
2023-01-09T00:16:06.152Z,7.73
2023-01-09T00:19:09.678Z,7.68
2023-01-09T00:22:12.267Z,7.69
2023-01-09T00:25:14.809Z,7.49
2023-01-09T00:28:19.532Z,7.69
2023-01-09T00:31:21.914Z,7.84
2023-01-09T00:34:23.790Z,7.97
2023-01-09T00:37:25.456Z,8.10
2023-01-09T00:40:27.205Z,8.15
2023-01-09T00:43:33.600Z,8.22
2023-01-09T00:46:41.479Z,8.44
2023-01-09T00:49:45.600Z,8.42
2023-01-09T00:52:48.837Z,8.36
2023-01-09T00:55:51.570Z,8.43
2023-01-09T00:58:53.666Z,8.37
2023-01-09T01:01:56.302Z,8.33
2023-01-09T01:05:17.935Z,8.34
2023-01-09T01:08:22.408Z,8.32
2023-01-09T01:11:29.025Z,8.19
2023-01-09T01:14:30.633Z,8.12
2023-01-09T01:17:35.342Z,8.00
2023-01-09T01:20:43.141Z,7.98
2023-01-09T01:23:45.132Z,7.97
2023-01-09T01:26:47.475Z,7.90
2023-01-09T01:29:49.197Z,7.96
2023-01-09T01:32:50.911Z,8.06
2023-01-09T01:36:03.658Z,8.08
2023-01-09T01:39:08.368Z,8.06
2023-01-09T01:42:14.365Z,7.95
2023-01-09T01:45:19.766Z,8.01
2023-01-09T01:48:30.590Z,7.98
2023-01-09T01:51:37.532Z,7.88
2023-01-09T01:54:39.703Z,7.89
2023-01-09T01:57:44.418Z,7.83
2023-01-09T02:00:51.912Z,7.78
2023-01-09T02:03:57.407Z,7.82
2023-01-09T02:07:03.033Z,7.80
2023-01-09T02:10:06.409Z,7.77
2023-01-09T02:13:08.961Z,7.85
2023-01-09T02:16:30.681Z,7.83
2023-01-09T02:19:58.919Z,7.82
2023-01-09T02:23:13.268Z,7.82
2023-01-09T02:26:34.675Z,7.81
2023-01-09T02:30:10.701Z,7.78
2023-01-09T02:33:53.609Z,7.69
2023-01-09T02:37:20.359Z,7.67
2023-01-09T02:40:35.275Z,7.64
2023-01-09T02:43:40.214Z,7.54
2023-01-09T02:46:41.893Z,7.58
2023-01-09T02:50:02.083Z,7.60
2023-01-09T02:53:39.258Z,7.58
2023-01-09T02:56:53.035Z,7.57
2023-01-09T02:59:55.901Z,7.52
2023-01-09T03:03:31.417Z,7.51
2023-01-09T03:07:04.047Z,7.47
2023-01-09T03:10:20.621Z,7.44
2023-01-09T03:13:25.278Z,7.28
2023-01-09T03:16:32.972Z,7.18
2023-01-09T03:19:36.374Z,7.11
2023-01-09T03:22:52.047Z,6.95
2023-01-09T03:25:56.027Z,6.90
2023-01-09T03:28:59.990Z,6.61
2023-01-09T03:32:02.355Z,6.47
2023-01-09T03:35:06.253Z,6.54
2023-01-09T03:38:09.216Z,6.59
2023-01-09T03:41:11.359Z,6.46
2023-01-09T03:44:14.200Z,6.43
2023-01-09T03:47:15.862Z,6.36
2023-01-09T03:50:26.622Z,6.30
2023-01-09T03:53:29.208Z,6.25
2023-01-09T03:56:31.069Z,6.20
2023-01-09T03:59:43.166Z,6.22
2023-01-09T04:02:46.545Z,6.21
2023-01-09T04:05:50.184Z,6.13
2023-01-09T04:09:02.824Z,6.16
2023-01-09T04:12:04.944Z,6.17
2023-01-09T04:15:07.249Z,6.12
2023-01-09T04:18:09.363Z,6.09
2023-01-09T04:21:11.041Z,6.09
2023-01-09T04:24:12.771Z,6.05
2023-01-09T04:27:14.430Z,5.88
2023-01-09T04:30:17.491Z,5.93
2023-01-09T04:33:19.101Z,5.90
2023-01-09T04:36:24.779Z,5.85
2023-01-09T04:39:28.147Z,5.80
2023-01-09T04:42:31.043Z,5.87
2023-01-09T04:45:32.929Z,5.95
2023-01-09T04:48:34.552Z,6.01
2023-01-09T04:51:36.350Z,5.97
2023-01-09T04:54:39.637Z,5.94
2023-01-09T04:57:41.231Z,5.95
2023-01-09T05:00:42.861Z,5.90
2023-01-09T05:03:46.517Z,6.00
2023-01-09T05:06:55.331Z,6.03
2023-01-09T05:10:03.829Z,5.94
2023-01-09T05:13:06.315Z,6.02
2023-01-09T05:16:13.659Z,5.96
2023-01-09T05:19:15.319Z,6.16
2023-01-09T05:22:19.196Z,6.08
2023-01-09T05:25:22.692Z,6.19
2023-01-09T05:28:32.331Z,6.15
2023-01-09T05:31:34.823Z,6.06
2023-01-09T05:34:37.527Z,6.02
2023-01-09T05:37:40.000Z,6.08
2023-01-09T05:40:41.876Z,6.10
2023-01-09T05:43:43.521Z,6.14
2023-01-09T05:46:45.217Z,6.07
2023-01-09T05:49:47.850Z,6.05
2023-01-09T05:52:49.545Z,6.33
2023-01-09T05:55:51.297Z,6.33
2023-01-09T05:58:52.985Z,6.38
2023-01-09T06:01:54.655Z,6.39
2023-01-09T06:04:56.335Z,6.49
2023-01-09T06:07:58.128Z,6.49
2023-01-09T06:11:01.839Z,6.44
2023-01-09T06:14:06.497Z,6.59
2023-01-09T06:17:10.137Z,6.46
2023-01-09T06:20:12.505Z,6.47
2023-01-09T06:23:14.251Z,6.53
2023-01-09T06:26:16.090Z,6.51
2023-01-09T06:29:17.970Z,6.58
2023-01-09T06:32:21.937Z,6.52
2023-01-09T06:35:26.440Z,6.22
2023-01-09T06:38:29.518Z,6.18
2023-01-09T06:41:31.228Z,6.17
2023-01-09T06:44:36.940Z,6.15
2023-01-09T06:47:39.283Z,6.13
2023-01-09T06:50:41.061Z,6.07
2023-01-09T06:53:42.625Z,6.11
2023-01-09T06:56:44.259Z,6.11
2023-01-09T06:59:45.900Z,6.04
2023-01-09T07:02:47.656Z,5.99
2023-01-09T07:05:49.845Z,6.03
2023-01-09T07:08:51.484Z,5.96
2023-01-09T07:11:53.123Z,5.97
2023-01-09T07:14:56.781Z,5.97
2023-01-09T07:17:59.310Z,6.02
2023-01-09T07:21:00.896Z,5.94
2023-01-09T07:24:02.536Z,5.90
2023-01-09T07:27:04.261Z,5.95
2023-01-09T07:30:06.809Z,5.98
2023-01-09T07:33:08.549Z,6.02
2023-01-09T07:36:10.848Z,6.01
2023-01-09T07:39:13.716Z,6.00
2023-01-09T07:42:15.578Z,5.94
2023-01-09T07:45:17.445Z,5.94
2023-01-09T07:48:19.272Z,6.03
2023-01-09T07:51:20.904Z,5.97
2023-01-09T07:54:22.715Z,5.93
2023-01-09T07:57:35.752Z,5.89
2023-01-09T08:00:40.728Z,5.97
2023-01-09T08:03:42.435Z,5.88
2023-01-09T08:06:44.054Z,5.92
2023-01-09T08:09:45.901Z,5.86
2023-01-09T08:12:48.674Z,5.91
2023-01-09T08:15:50.547Z,5.83
2023-01-09T08:18:52.547Z,5.84
2023-01-09T08:21:54.202Z,5.92
2023-01-09T08:24:55.875Z,5.98
2023-01-09T08:27:57.567Z,6.02
2023-01-09T08:30:59.202Z,6.07
2023-01-09T08:34:00.919Z,6.16
2023-01-09T08:37:02.642Z,6.11
2023-01-09T08:40:04.906Z,6.11
2023-01-09T08:43:25.305Z,6.07
2023-01-09T08:46:45.700Z,6.07
2023-01-09T08:49:47.406Z,6.22
2023-01-09T08:52:49.248Z,6.28
2023-01-09T08:55:51.325Z,6.35
2023-01-09T08:58:53.005Z,6.39
2023-01-09T09:01:54.614Z,6.45
2023-01-09T09:04:56.472Z,6.45
2023-01-09T09:07:59.068Z,6.46
2023-01-09T09:11:01.308Z,6.50
2023-01-09T09:14:26.301Z,6.56
2023-01-09T09:17:28.972Z,6.69
2023-01-09T09:20:36.731Z,6.70
2023-01-09T09:23:38.348Z,6.74
2023-01-09T09:26:40.005Z,6.82
2023-01-09T09:29:41.656Z,6.86
2023-01-09T09:32:43.343Z,6.89
2023-01-09T09:35:45.076Z,6.84
2023-01-09T09:38:47.186Z,6.94
2023-01-09T09:42:27.366Z,6.93
2023-01-09T09:45:41.031Z,6.97
2023-01-09T09:48:55.283Z,7.03
2023-01-09T09:52:08.558Z,7.15
2023-01-09T09:55:27.453Z,7.14
2023-01-09T09:59:04.258Z,7.21
2023-01-09T10:02:09.052Z,7.27
2023-01-09T10:05:27.894Z,7.29
2023-01-09T10:08:44.720Z,7.36
2023-01-09T10:12:24.677Z,7.34
2023-01-09T10:15:38.631Z,7.36
2023-01-09T10:18:52.081Z,7.35
2023-01-09T10:25:19.520Z,7.37
2023-01-09T10:28:58.817Z,7.38
2023-01-09T10:32:18.746Z,7.40
2023-01-09T10:35:42.793Z,7.41
2023-01-09T10:38:55.479Z,7.43
2023-01-09T10:41:57.110Z,7.45
2023-01-09T10:45:01.692Z,7.48
2023-01-09T10:48:25.915Z,7.43
2023-01-09T10:51:50.009Z,7.30
2023-01-09T10:54:56.539Z,7.33
2023-01-09T10:57:59.276Z,7.30
2023-01-09T11:01:03.120Z,7.31
2023-01-09T11:04:31.013Z,7.29
2023-01-09T11:07:37.546Z,7.25
2023-01-09T11:10:52.409Z,7.24
2023-01-09T11:14:22.512Z,7.18
2023-01-09T11:17:27.569Z,7.22
2023-01-09T11:20:30.336Z,7.35
2023-01-09T11:23:34.961Z,7.47
2023-01-09T11:26:36.658Z,7.56
2023-01-09T11:29:39.049Z,7.66
2023-01-09T11:32:41.109Z,7.68
2023-01-09T11:35:57.307Z,7.58
2023-01-09T11:39:00.995Z,7.53
2023-01-09T11:42:05.810Z,7.45
2023-01-09T11:45:31.213Z,7.25
2023-01-09T11:48:57.255Z,7.07
2023-01-09T11:52:04.977Z,7.07
2023-01-09T11:55:14.272Z,7.03
2023-01-09T11:58:18.902Z,7.04
2023-01-09T12:01:45.170Z,7.01
2023-01-09T12:04:54.457Z,6.98
2023-01-09T12:08:12.173Z,6.89
2023-01-09T12:11:13.810Z,6.86
2023-01-09T12:14:39.480Z,6.83
2023-01-09T12:18:11.674Z,6.85
2023-01-09T12:21:49.100Z,6.75
2023-01-09T12:24:53.571Z,6.74
2023-01-09T12:28:00.767Z,6.64
2023-01-09T12:31:02.335Z,6.55
2023-01-09T12:34:24.706Z,6.38
2023-01-09T12:37:46.059Z,6.39
2023-01-09T12:40:53.636Z,6.31
2023-01-09T12:44:14.198Z,6.35
2023-01-09T12:47:48.450Z,6.29
2023-01-09T12:51:11.008Z,6.25
2023-01-09T12:54:23.696Z,6.19
2023-01-09T12:57:34.627Z,6.16
2023-01-09T13:00:51.442Z,6.20
2023-01-09T13:04:12.713Z,6.23
2023-01-09T13:07:21.445Z,6.29
2023-01-09T13:10:33.815Z,6.42
2023-01-09T13:13:45.635Z,6.47
2023-01-09T13:16:52.423Z,6.44
2023-01-09T13:19:54.267Z,6.38
2023-01-09T13:22:56.607Z,6.37
2023-01-09T13:26:02.467Z,6.41
2023-01-09T13:29:16.324Z,6.39
2023-01-09T13:32:33.270Z,6.54
2023-01-09T13:35:46.969Z,6.50
2023-01-09T13:38:49.247Z,6.52
2023-01-09T13:42:17.047Z,6.43
2023-01-09T13:45:18.567Z,6.40
2023-01-09T13:48:28.293Z,6.35
2023-01-09T13:51:42.103Z,6.26
2023-01-09T13:54:55.597Z,6.26
2023-01-09T13:58:06.519Z,6.18
2023-01-09T14:01:40.906Z,6.09
2023-01-09T14:04:46.212Z,6.08
2023-01-09T14:07:50.443Z,6.00
2023-01-09T14:10:57.719Z,6.06
2023-01-09T14:14:04.042Z,6.16
2023-01-09T14:17:17.269Z,6.20
2023-01-09T14:20:30.842Z,6.23
2023-01-09T14:24:02.715Z,6.37
2023-01-09T14:27:44.552Z,6.26
2023-01-09T14:30:55.131Z,6.31
2023-01-09T14:34:31.949Z,6.22
2023-01-09T14:37:38.401Z,6.16
2023-01-09T14:40:48.929Z,6.18
2023-01-09T14:44:04.205Z,6.17
2023-01-09T14:47:16.936Z,6.09
2023-01-09T14:50:34.649Z,6.11
2023-01-09T14:53:39.325Z,6.09
2023-01-09T14:56:47.348Z,5.92
2023-01-09T15:00:00.023Z,5.86
2023-01-09T15:03:03.268Z,5.73
2023-01-09T15:06:06.377Z,5.72
2023-01-09T15:09:17.016Z,5.58
2023-01-09T15:12:23.095Z,5.44
2023-01-09T15:15:25.541Z,5.37
2023-01-09T15:18:31.411Z,5.41
2023-01-09T15:21:33.525Z,5.39
2023-01-09T15:24:35.159Z,5.26
2023-01-09T15:27:47.689Z,5.38
2023-01-09T15:31:14.188Z,5.34
2023-01-09T15:34:19.934Z,5.30
2023-01-09T15:37:24.587Z,5.26
2023-01-09T15:40:33.062Z,5.10
2023-01-09T15:43:38.666Z,4.88
2023-01-09T15:46:40.609Z,5.00
2023-01-09T15:49:42.918Z,4.89
2023-01-09T15:52:45.028Z,4.96
2023-01-09T15:56:04.752Z,4.98
2023-01-09T15:59:27.259Z,4.97
2023-01-09T16:02:47.770Z,4.99
2023-01-09T16:06:05.537Z,5.04
2023-01-09T16:09:16.849Z,5.14
2023-01-09T16:12:25.812Z,5.25
2023-01-09T16:15:32.630Z,5.22
2023-01-09T16:18:37.461Z,5.26
2023-01-09T16:21:39.131Z,5.29
2023-01-09T16:24:42.030Z,5.35
2023-01-09T16:27:43.644Z,5.26
2023-01-09T16:30:56.034Z,5.37
2023-01-09T16:34:06.515Z,5.34
2023-01-09T16:37:11.146Z,5.34
2023-01-09T16:40:17.103Z,5.34
2023-01-09T16:43:18.694Z,5.34
2023-01-09T16:46:21.533Z,5.32
2023-01-09T16:49:27.101Z,5.27
2023-01-09T16:52:29.467Z,5.34
2023-01-09T16:55:31.392Z,5.18
2023-01-09T16:58:35.802Z,5.29
2023-01-09T17:01:37.573Z,5.24
2023-01-09T17:04:39.167Z,5.15
2023-01-09T17:07:40.844Z,5.23
2023-01-09T17:10:42.478Z,5.19
2023-01-09T17:13:44.337Z,5.23
2023-01-09T17:16:46.776Z,5.13
2023-01-09T17:19:49.086Z,5.17
2023-01-09T17:22:50.676Z,5.03
2023-01-09T17:26:15.715Z,5.01
2023-01-09T17:29:17.453Z,5.07
2023-01-09T17:32:19.337Z,5.07
2023-01-09T17:35:21.013Z,5.05
2023-01-09T17:38:22.594Z,5.01
2023-01-09T17:41:26.598Z,4.92
2023-01-09T17:44:28.245Z,4.90
2023-01-09T17:47:29.873Z,4.93
2023-01-09T17:50:34.663Z,4.89
2023-01-09T17:53:36.495Z,4.88
2023-01-09T17:56:43.218Z,4.91
2023-01-09T17:59:45.141Z,4.91
2023-01-09T18:02:46.933Z,4.85
2023-01-09T18:05:48.989Z,4.93
2023-01-09T18:08:50.680Z,4.81
2023-01-09T18:11:52.322Z,4.88
2023-01-09T18:14:54.103Z,4.88
2023-01-09T18:17:55.898Z,4.88
2023-01-09T18:20:57.636Z,4.81
2023-01-09T18:24:01.368Z,4.91
2023-01-09T18:27:03.018Z,4.91
2023-01-09T18:30:06.243Z,4.96
2023-01-09T18:33:07.931Z,5.02
2023-01-09T18:36:10.435Z,5.06
2023-01-09T18:39:12.296Z,5.03
2023-01-09T18:42:13.965Z,5.08
2023-01-09T18:45:15.617Z,5.05
2023-01-09T18:48:17.259Z,5.12
2023-01-09T18:51:19.596Z,5.15
2023-01-09T18:54:21.297Z,5.10
2023-01-09T18:57:22.929Z,5.12
2023-01-09T19:00:24.597Z,5.07
2023-01-09T19:03:26.225Z,5.12
2023-01-09T19:06:29.695Z,5.15
2023-01-09T19:09:31.268Z,5.18
2023-01-09T19:12:33.014Z,5.23
2023-01-09T19:15:34.825Z,5.19
2023-01-09T19:18:39.324Z,5.15
2023-01-09T19:21:40.994Z,5.30
2023-01-09T19:24:43.028Z,5.34
2023-01-09T19:27:44.623Z,5.35
2023-01-09T19:30:46.690Z,5.39
2023-01-09T19:33:48.676Z,5.43
2023-01-09T19:36:51.979Z,5.52
2023-01-09T19:39:53.595Z,5.51
2023-01-09T19:42:56.377Z,5.50
2023-01-09T19:45:58.165Z,5.43
2023-01-09T19:49:04.506Z,5.49
2023-01-09T19:52:06.284Z,5.50
2023-01-09T19:55:11.111Z,5.49
2023-01-09T19:58:12.866Z,5.52
2023-01-09T20:01:17.533Z,5.50
2023-01-09T20:04:20.108Z,5.52
2023-01-09T20:07:21.782Z,5.53
2023-01-09T20:10:23.595Z,5.50
2023-01-09T20:13:25.425Z,5.51
2023-01-09T20:16:30.118Z,5.48
2023-01-09T20:19:32.931Z,5.47
2023-01-09T20:22:34.755Z,5.50
2023-01-09T20:25:36.500Z,5.54
2023-01-09T20:28:38.355Z,5.56
2023-01-09T20:31:40.064Z,5.57
2023-01-09T20:34:44.967Z,5.42
2023-01-09T20:37:46.791Z,5.37
2023-01-09T20:40:48.503Z,5.33
2023-01-09T20:43:55.832Z,5.29
2023-01-09T20:46:57.724Z,5.09
2023-01-09T20:49:59.500Z,5.13
2023-01-09T20:53:01.094Z,5.00
2023-01-09T20:56:05.528Z,4.94
2023-01-09T20:59:11.832Z,4.92
2023-01-09T21:02:14.880Z,4.84
2023-01-09T21:05:16.503Z,4.82
2023-01-09T21:08:18.140Z,4.84
2023-01-09T21:11:25.148Z,4.80
2023-01-09T21:14:26.839Z,4.74
2023-01-09T21:17:29.058Z,4.75
2023-01-09T21:20:30.882Z,4.79
2023-01-09T21:23:33.010Z,4.72
2023-01-09T21:26:34.677Z,4.76
2023-01-09T21:29:36.291Z,4.74
2023-01-09T21:32:38.203Z,4.73
2023-01-09T21:35:43.894Z,4.66
2023-01-09T21:38:47.339Z,4.72
2023-01-09T21:42:07.729Z,4.64
2023-01-09T21:45:36.375Z,4.68
2023-01-09T21:48:38.180Z,4.60
2023-01-09T21:51:41.212Z,4.58
2023-01-09T21:54:42.915Z,4.63
2023-01-09T21:57:44.545Z,4.59
2023-01-09T22:00:46.371Z,4.48
2023-01-09T22:03:48.174Z,4.58
2023-01-09T22:06:50.245Z,4.50
2023-01-09T22:09:51.956Z,4.40
2023-01-09T22:13:12.245Z,4.49
2023-01-09T22:16:14.071Z,4.42
2023-01-09T22:19:18.086Z,4.48
2023-01-09T22:22:19.731Z,4.45
2023-01-09T22:25:22.816Z,4.45
2023-01-09T22:28:24.559Z,4.44
2023-01-09T22:31:28.469Z,4.48
2023-01-09T22:34:31.916Z,4.44
2023-01-09T22:37:34.303Z,4.40
2023-01-09T22:40:37.720Z,4.41
2023-01-09T22:43:39.412Z,4.34
2023-01-09T22:46:41.084Z,4.41
2023-01-09T22:49:52.306Z,4.38
2023-01-09T22:52:54.867Z,4.37
2023-01-09T22:56:01.380Z,4.34
2023-01-09T22:59:03.219Z,4.34
2023-01-09T23:02:05.066Z,4.36
2023-01-09T23:05:06.990Z,4.34
2023-01-09T23:08:11.840Z,4.32
2023-01-09T23:11:16.768Z,4.38
2023-01-09T23:14:18.542Z,4.34
2023-01-09T23:17:23.174Z,4.32
2023-01-09T23:20:24.835Z,4.27
2023-01-09T23:23:28.223Z,4.27
2023-01-09T23:26:29.843Z,4.25
2023-01-09T23:29:32.244Z,4.25
2023-01-09T23:32:33.930Z,4.33
2023-01-09T23:35:35.724Z,4.34
2023-01-09T23:38:39.032Z,4.33
2023-01-09T23:42:00.375Z,4.36
2023-01-09T23:45:02.167Z,4.39
2023-01-09T23:48:05.875Z,4.36
2023-01-09T23:51:07.579Z,4.35
2023-01-09T23:54:09.216Z,4.28
2023-01-09T23:57:11.807Z,4.42
